Аэропорт: Элиста. Элиста

ICAO: URWI

METAR:
2019-11-21 09:00:00
URWI 210900Z 08011MPS CAVOK M09/M20 Q1040 R09/010065 NOSIG
METAR:
2019-11-21 08:00:00
TAF URWI 210800Z 2109/2118 06008G13MPS 9999 SCT015 TEMPO 2109/2118 08012G18MPS